首页
METAR-TAF:

METAR-TAF

机场 :

皮阿尔科国际机场

西班牙港, 特立尼达岛, 千里達及托巴哥

纬度: 10-37N, 经度: 061-21W, 海拔: 12米

当前天气观测

该预报发布于18分钟前的09:00 UTC
风速7节,风向东转东南
温度 25°C
湿度 83%
气压 1012 hPa
能见度10公里或以上
少量云层高于1600英尺

METAR: TTPP 290900Z 11007KT 9999 FEW016 25/22 Q1012 NOSIG

时间: 05:18 (09:18 UTC)

预报

该预报发布于5小时和18分钟前的04:00 UTC
预报有效从29日的 06点(UTC)到 30日的 06点(UTC)
风速3节,风向东转东南
能见度10公里或以上
少量云层高于1600英尺
成为
从 29日的 12点(UTC)到 29日的 14点(UTC)
风速14节,风向
散云层高于2000英尺
几率 40% :
短暂存在
从 29日的 14点(UTC)到 29日的 20点(UTC)
能見度: 5000
散云层高于1600英尺
散云层高于3500英尺
阵雨

TAF: TTPP 290400Z 2906/3006 11003KT 9999 FEW016 BECMG 2912/2914 10014KT SCT020 PROB40 TEMPO 2914/2920 5000 SHRA SCT016 SCT035

超过4000个机场的气象观测和天气预报(METAR&TAF报告)。

可查询的气象台以黄色和红色小点在地图上表示。

将鼠标移到小点上方,可查看气象台名称。

然后点击查看天气观测和预报。

如需切换地图:点击带黑十字的绿色按钮放大地图;点击带横线的绿色按钮缩小地图;或者点击绿色箭头查看邻近地区的地图。


METAR-TAF: